createdAt,value
2023-05-14T00:02:00.571Z,100771.31
2023-05-14T00:05:03.999Z,100765.50
2023-05-14T00:08:07.058Z,100757.72
2023-05-14T00:11:10.157Z,100752.66
2023-05-14T00:14:13.026Z,100745.31
2023-05-14T00:17:16.255Z,100737.94
2023-05-14T00:20:19.469Z,100734.09
2023-05-14T00:23:23.118Z,100727.47
2023-05-14T00:26:26.483Z,100723.59
2023-05-14T00:29:29.644Z,100727.06
2023-05-14T00:32:33.514Z,100718.97
2023-05-14T00:35:36.585Z,100717.47
2023-05-14T00:38:39.508Z,100715.06
2023-05-14T00:41:44.200Z,100707.72
2023-05-14T00:44:47.401Z,100715.38
2023-05-14T00:47:51.320Z,100708.78
2023-05-14T00:50:54.742Z,100705.22
2023-05-14T00:53:58.177Z,100707.53
2023-05-14T00:57:01.326Z,100701.31
2023-05-14T01:00:05.531Z,100700.19
2023-05-14T01:03:09.342Z,100697.47
2023-05-14T01:06:34.669Z,100695.88
2023-05-14T01:10:07.205Z,100685.06
2023-05-14T01:13:26.625Z,100680.81
2023-05-14T01:16:33.510Z,100673.34
2023-05-14T01:19:47.908Z,100670.25
2023-05-14T01:22:51.144Z,100673.84
2023-05-14T01:25:55.878Z,100666.44
2023-05-14T01:29:08.133Z,100659.81
2023-05-14T01:32:13.692Z,100655.88
2023-05-14T01:35:18.401Z,100654.38
2023-05-14T01:38:26.109Z,100647.31
2023-05-14T01:41:33.037Z,100653.97
2023-05-14T01:44:37.161Z,100656.31
2023-05-14T01:47:40.340Z,100643.13
2023-05-14T01:50:43.785Z,100641.59
2023-05-14T01:53:47.075Z,100647.06
2023-05-14T01:56:50.074Z,100637.66
2023-05-14T01:59:53.416Z,100644.59
2023-05-14T02:02:56.701Z,100645.09
2023-05-14T02:06:02.652Z,100646.91
2023-05-14T02:09:05.830Z,100643.41
2023-05-14T02:12:09.389Z,100636.13
2023-05-14T02:15:12.921Z,100637.59
2023-05-14T02:18:16.224Z,100637.25
2023-05-14T02:21:19.275Z,100631.44
2023-05-14T02:24:22.757Z,100632.94
2023-05-14T02:27:26.288Z,100626.34
2023-05-14T02:30:30.275Z,100621.31
2023-05-14T02:33:33.566Z,100623.59
2023-05-14T02:36:36.784Z,100621.69
2023-05-14T02:39:40.599Z,100620.91
2023-05-14T02:42:43.596Z,100617.06
2023-05-14T02:45:47.410Z,100620.06
2023-05-14T02:48:50.445Z,100624.63
2023-05-14T02:51:54.488Z,100620.47
2023-05-14T02:54:57.764Z,100616.13
2023-05-14T02:58:00.671Z,100612.56
2023-05-14T03:01:03.775Z,100610.19
2023-05-14T03:04:07.825Z,100604.81
2023-05-14T03:07:10.846Z,100608.63
2023-05-14T03:10:13.816Z,100613.41
2023-05-14T03:13:18.007Z,100608.34
2023-05-14T03:16:20.966Z,100611.53
2023-05-14T03:19:23.829Z,100603.06
2023-05-14T03:22:27.127Z,100611.66
2023-05-14T03:25:30.380Z,100606.22
2023-05-14T03:28:34.577Z,100607.50
2023-05-14T03:31:37.989Z,100602.03
2023-05-14T03:34:41.770Z,100602.03
2023-05-14T03:37:45.178Z,100595.09
2023-05-14T03:40:48.287Z,100591.97
2023-05-14T03:43:51.675Z,100586.56
2023-05-14T03:46:54.628Z,100588.88
2023-05-14T03:49:58.564Z,100588.81
2023-05-14T03:53:01.771Z,100587.63
2023-05-14T03:56:06.795Z,100587.97
2023-05-14T03:59:10.318Z,100581.28
2023-05-14T04:02:13.673Z,100577.09
2023-05-14T04:05:16.899Z,100587.63
2023-05-14T04:08:20.002Z,100589.19
2023-05-14T04:11:23.184Z,100592.25
2023-05-14T04:14:26.354Z,100588.00
2023-05-14T04:17:29.750Z,100584.22
2023-05-14T04:20:33.114Z,100591.53
2023-05-14T04:23:36.466Z,100591.44
2023-05-14T04:26:39.471Z,100593.06
2023-05-14T04:29:42.599Z,100585.75
2023-05-14T04:32:45.903Z,100585.00
2023-05-14T04:35:49.314Z,100586.88
2023-05-14T04:38:52.772Z,100591.50
2023-05-14T04:41:56.152Z,100593.84
2023-05-14T04:44:59.280Z,100587.19
2023-05-14T04:48:04.214Z,100588.41
2023-05-14T04:51:07.459Z,100582.69
2023-05-14T04:54:10.576Z,100581.47
2023-05-14T04:57:13.611Z,100574.97
2023-05-14T05:00:17.524Z,100577.47
2023-05-14T05:03:20.573Z,100578.25
2023-05-14T05:06:23.865Z,100578.53
2023-05-14T05:09:27.055Z,100579.72
2023-05-14T05:12:30.410Z,100580.59
2023-05-14T05:15:33.657Z,100575.78
2023-05-14T05:18:36.906Z,100580.38
2023-05-14T05:21:41.028Z,100583.84
2023-05-14T05:24:44.576Z,100571.72
2023-05-14T05:27:47.662Z,100570.66
2023-05-14T05:30:50.980Z,100573.38
2023-05-14T05:33:53.967Z,100568.13
2023-05-14T05:36:57.125Z,100561.63
2023-05-14T05:40:00.162Z,100563.16
2023-05-14T05:43:03.281Z,100560.75
2023-05-14T05:46:07.428Z,100569.34
2023-05-14T05:49:10.733Z,100561.22
2023-05-14T05:52:14.102Z,100560.31
2023-05-14T05:55:17.364Z,100554.44
2023-05-14T05:58:20.574Z,100551.44
2023-05-14T06:01:23.700Z,100551.44
2023-05-14T06:04:26.813Z,100553.84
2023-05-14T06:07:30.019Z,100549.97
2023-05-14T06:10:35.049Z,100541.09
2023-05-14T06:13:38.066Z,100545.56
2023-05-14T06:16:41.696Z,100537.84
2023-05-14T06:19:44.762Z,100541.38
2023-05-14T06:22:47.845Z,100536.88
2023-05-14T06:25:51.365Z,100538.06
2023-05-14T06:28:54.682Z,100535.66
2023-05-14T06:32:01.932Z,100536.19
2023-05-14T06:35:06.340Z,100539.34
2023-05-14T06:38:09.373Z,100523.69
2023-05-14T06:41:12.461Z,100535.44
2023-05-14T06:44:19.523Z,100524.56
2023-05-14T06:47:22.752Z,100513.63
2023-05-14T06:50:26.086Z,100518.25
2023-05-14T06:53:28.929Z,100511.22
2023-05-14T06:56:32.179Z,100507.91
2023-05-14T06:59:35.265Z,100509.81
2023-05-14T07:02:38.601Z,100509.28
2023-05-14T07:05:42.363Z,100512.81
2023-05-14T07:08:46.288Z,100510.09
2023-05-14T07:11:49.528Z,100508.16
2023-05-14T07:14:52.701Z,100507.09
2023-05-14T07:17:55.925Z,100512.03
2023-05-14T07:20:59.228Z,100503.84
2023-05-14T07:24:02.461Z,100505.75
2023-05-14T07:27:06.394Z,100494.25
2023-05-14T07:30:09.943Z,100495.72
2023-05-14T07:33:13.469Z,100487.09
2023-05-14T07:36:16.885Z,100484.13
2023-05-14T07:39:20.097Z,100481.63
2023-05-14T07:42:35.321Z,100473.38
2023-05-14T07:45:40.365Z,100456.72
2023-05-14T07:48:46.396Z,100469.91
2023-05-14T07:51:49.858Z,100470.25
2023-05-14T07:54:53.332Z,100455.53
2023-05-14T07:57:56.681Z,100451.63
2023-05-14T08:01:01.549Z,100446.69
2023-05-14T08:04:04.814Z,100454.72
2023-05-14T08:07:08.863Z,100448.44
2023-05-14T08:10:12.218Z,100449.22
2023-05-14T08:13:15.260Z,100455.81
2023-05-14T08:16:18.409Z,100448.81
2023-05-14T08:19:21.632Z,100462.88
2023-05-14T08:22:24.682Z,100443.81
2023-05-14T08:25:27.877Z,100434.88
2023-05-14T08:28:31.028Z,100443.41
2023-05-14T08:31:34.781Z,100444.91
2023-05-14T08:34:38.060Z,100444.19
2023-05-14T08:37:40.976Z,100435.94
2023-05-14T08:40:55.891Z,100437.56
2023-05-14T08:44:13.181Z,100427.88
2023-05-14T08:47:19.278Z,100425.97
2023-05-14T08:50:23.787Z,100420.41
2023-05-14T08:53:27.570Z,100423.31
2023-05-14T08:56:33.260Z,100425.44
2023-05-14T08:59:36.904Z,100442.13
2023-05-14T09:02:41.137Z,100426.56
2023-05-14T09:05:44.804Z,100430.09
2023-05-14T09:08:48.129Z,100427.31
2023-05-14T09:11:53.121Z,100425.78
2023-05-14T09:14:56.498Z,100430.03
2023-05-14T09:17:59.647Z,100413.31
2023-05-14T09:21:02.703Z,100416.38
2023-05-14T09:24:06.830Z,100390.28
2023-05-14T09:27:15.894Z,100370.19
2023-05-14T09:30:19.216Z,100353.38
2023-05-14T09:33:29.597Z,100350.25
2023-05-14T09:36:34.822Z,100359.19
2023-05-14T09:39:38.550Z,100354.50
2023-05-14T09:42:41.896Z,100346.28
2023-05-14T09:45:44.922Z,100340.06
2023-05-14T09:48:48.282Z,100320.81
2023-05-14T09:51:51.841Z,100319.53
2023-05-14T09:54:54.932Z,100322.78
2023-05-14T09:57:58.285Z,100338.59
2023-05-14T10:01:02.038Z,100350.81
2023-05-14T10:04:07.838Z,100360.38
2023-05-14T10:07:12.138Z,100351.38
2023-05-14T10:10:23.885Z,100346.28
2023-05-14T10:13:39.843Z,100351.38
2023-05-14T10:16:48.243Z,100361.50
2023-05-14T10:19:57.250Z,100358.63
2023-05-14T10:23:01.267Z,100347.91
2023-05-14T10:26:05.283Z,100354.81
2023-05-14T10:29:11.119Z,100345.41
2023-05-14T10:32:15.242Z,100348.53
2023-05-14T10:35:22.870Z,100346.22
2023-05-14T10:38:34.069Z,100340.25
2023-05-14T10:41:39.260Z,100345.34
2023-05-14T10:45:09.239Z,100336.00
2023-05-14T10:48:12.274Z,100334.09
2023-05-14T10:51:17.753Z,100332.91
2023-05-14T10:54:23.533Z,100340.59
2023-05-14T10:57:29.583Z,100333.94
2023-05-14T11:00:35.919Z,100332.91
2023-05-14T11:03:47.098Z,100323.91
2023-05-14T11:06:53.653Z,100316.94
2023-05-14T11:10:08.392Z,100307.50
2023-05-14T11:13:11.932Z,100307.91
2023-05-14T11:16:23.221Z,100309.59
2023-05-14T11:19:26.807Z,100299.81
2023-05-14T11:22:33.775Z,100298.22
2023-05-14T11:25:37.362Z,100294.38
2023-05-14T11:28:41.104Z,100292.44
2023-05-14T11:31:44.292Z,100284.09
2023-05-14T11:34:47.652Z,100287.19
2023-05-14T11:37:54.634Z,100287.53
2023-05-14T11:40:59.706Z,100281.72
2023-05-14T11:44:03.616Z,100275.25
2023-05-14T11:47:07.421Z,100264.13
2023-05-14T11:50:13.069Z,100260.78
2023-05-14T11:53:26.669Z,100266.31
2023-05-14T11:56:29.947Z,100253.72
2023-05-14T11:59:32.959Z,100251.66
2023-05-14T12:02:37.835Z,100254.56
2023-05-14T12:05:41.197Z,100249.06
2023-05-14T12:08:44.311Z,100247.88
2023-05-14T12:11:53.203Z,100246.00
2023-05-14T12:14:56.590Z,100240.06
2023-05-14T12:18:00.405Z,100230.22
2023-05-14T12:21:08.545Z,100215.91
2023-05-14T12:24:17.835Z,100208.66
2023-05-14T12:27:24.554Z,100207.47
2023-05-14T12:30:27.679Z,100216.28
2023-05-14T12:33:30.917Z,100211.31
2023-05-14T12:36:34.252Z,100208.09
2023-05-14T12:39:37.865Z,100202.72
2023-05-14T12:42:41.323Z,100209.34
2023-05-14T12:45:44.583Z,100204.47
2023-05-14T12:48:47.657Z,100202.59
2023-05-14T12:51:56.759Z,100195.94
2023-05-14T12:55:10.175Z,100190.34
2023-05-14T12:58:13.576Z,100183.34
2023-05-14T13:01:16.710Z,100169.59
2023-05-14T13:04:22.536Z,100170.28
2023-05-14T13:07:25.958Z,100170.09
2023-05-14T13:10:29.257Z,100159.44
2023-05-14T13:13:32.537Z,100165.00
2023-05-14T13:16:35.790Z,100154.59
2023-05-14T13:19:39.428Z,100156.56
2023-05-14T13:22:42.692Z,100149.41
2023-05-14T13:25:47.955Z,100144.56
2023-05-14T13:28:52.764Z,100139.53
2023-05-14T13:31:55.947Z,100145.84
2023-05-14T13:34:59.011Z,100139.63
2023-05-14T13:38:02.054Z,100122.84
2023-05-14T13:41:05.502Z,100125.56
2023-05-14T13:44:08.713Z,100121.16
2023-05-14T13:47:11.927Z,100122.78
2023-05-14T13:50:15.315Z,100118.38
2023-05-14T13:53:20.054Z,100110.88
2023-05-14T13:56:23.575Z,100111.88
2023-05-14T13:59:28.040Z,100120.06
2023-05-14T14:02:32.258Z,100107.28
2023-05-14T14:05:36.959Z,100108.81
2023-05-14T14:08:40.646Z,100101.91
2023-05-14T14:11:43.992Z,100096.41
2023-05-14T14:14:47.157Z,100099.53
2023-05-14T14:17:50.235Z,100101.69
2023-05-14T14:20:53.222Z,100092.66
2023-05-14T14:23:56.239Z,100089.00
2023-05-14T14:26:59.255Z,100086.97
2023-05-14T14:30:02.976Z,100097.16
2023-05-14T14:33:06.158Z,100090.94
2023-05-14T14:36:09.300Z,100076.06
2023-05-14T14:39:12.244Z,100072.94
2023-05-14T14:42:15.217Z,100070.88
2023-05-14T14:45:18.738Z,100066.34
2023-05-14T14:48:23.514Z,100072.94
2023-05-14T14:51:26.679Z,100064.16
2023-05-14T14:54:30.037Z,100058.28
2023-05-14T14:57:33.148Z,100062.19
2023-05-14T15:00:36.234Z,100062.47
2023-05-14T15:03:39.500Z,100058.09
2023-05-14T15:06:42.670Z,100051.56
2023-05-14T15:09:45.691Z,100053.88
2023-05-14T15:12:49.068Z,100047.56
2023-05-14T15:15:54.917Z,100027.47
2023-05-14T15:18:58.151Z,100018.69
2023-05-14T15:22:01.181Z,100019.47
2023-05-14T15:25:04.785Z,100011.19
2023-05-14T15:28:07.824Z,100010.72
2023-05-14T15:31:10.970Z,100005.34
2023-05-14T15:34:16.519Z,100020.31
2023-05-14T15:37:19.418Z,100007.22
2023-05-14T15:40:22.760Z,100007.22
2023-05-14T15:43:26.152Z,100008.25
2023-05-14T15:46:29.462Z,100002.91
2023-05-14T15:49:32.409Z,100004.94
2023-05-14T15:52:36.517Z,100001.44
2023-05-14T15:55:39.627Z,100005.09
2023-05-14T15:58:42.574Z,100000.09
2023-05-14T16:01:45.805Z,100008.94
2023-05-14T16:04:49.653Z,99998.56
2023-05-14T16:07:53.252Z,99997.63
2023-05-14T16:10:56.606Z,99984.59
2023-05-14T16:13:59.977Z,99968.09
2023-05-14T16:17:03.295Z,99973.13
2023-05-14T16:20:07.026Z,99971.06
2023-05-14T16:23:10.286Z,99972.16
2023-05-14T16:26:13.691Z,99967.09
2023-05-14T16:29:17.019Z,99973.53
2023-05-14T16:32:20.607Z,99972.34
2023-05-14T16:35:23.748Z,99967.75
2023-05-14T16:38:26.989Z,99954.91
2023-05-14T16:41:30.254Z,99956.19
2023-05-14T16:44:33.647Z,99948.69
2023-05-14T16:47:36.699Z,99932.00
2023-05-14T16:50:40.105Z,99931.16
2023-05-14T16:53:43.193Z,99927.00
2023-05-14T16:56:49.367Z,99913.50
2023-05-14T16:59:53.541Z,99914.34
2023-05-14T17:02:56.995Z,99919.69
2023-05-14T17:06:00.708Z,99929.41
2023-05-14T17:09:05.466Z,99934.41
2023-05-14T17:12:09.776Z,99928.53
2023-05-14T17:15:13.028Z,99923.09
2023-05-14T17:18:16.306Z,99914.06
2023-05-14T17:21:19.393Z,99902.75
2023-05-14T17:24:22.464Z,99896.44
2023-05-14T17:27:26.504Z,99903.31
2023-05-14T17:30:29.865Z,99901.88
2023-05-14T17:33:33.334Z,99909.53
2023-05-14T17:36:36.811Z,99898.84
2023-05-14T17:39:39.934Z,99903.88
2023-05-14T17:42:45.574Z,99905.94
2023-05-14T17:48:56.580Z,99907.81
2023-05-14T17:52:00.141Z,99903.22
2023-05-14T17:55:04.035Z,99907.03
2023-05-14T17:58:07.295Z,99902.09
2023-05-14T18:01:10.466Z,99901.38
2023-05-14T18:04:14.048Z,99900.50
2023-05-14T18:07:18.910Z,99904.41
2023-05-14T18:10:22.276Z,99901.69
2023-05-14T18:13:25.477Z,99897.78
2023-05-14T18:16:29.112Z,99896.66
2023-05-14T18:19:32.655Z,99892.75
2023-05-14T18:22:36.013Z,99898.94
2023-05-14T18:25:39.758Z,99910.19
2023-05-14T18:28:43.487Z,99898.94
2023-05-14T18:31:47.129Z,99897.78
2023-05-14T18:34:50.953Z,99896.03
2023-05-14T18:37:55.089Z,99899.41
2023-05-14T18:40:58.431Z,99894.75
2023-05-14T18:44:02.596Z,99894.41
2023-05-14T18:47:06.235Z,99888.53
2023-05-14T18:50:10.342Z,99873.69
2023-05-14T18:53:14.004Z,99871.09
2023-05-14T18:56:17.393Z,99867.16
2023-05-14T18:59:20.914Z,99874.56
2023-05-14T19:02:24.476Z,99872.28
2023-05-14T19:05:29.370Z,99880.88
2023-05-14T19:08:32.873Z,99871.09
2023-05-14T19:11:36.379Z,99874.56
2023-05-14T19:14:39.558Z,99884.38
2023-05-14T19:17:43.002Z,99879.59
2023-05-14T19:20:47.153Z,99873.81
2023-05-14T19:23:50.602Z,99869.13
2023-05-14T19:26:55.518Z,99871.53
2023-05-14T19:29:59.089Z,99872.72
2023-05-14T19:33:02.707Z,99860.22
2023-05-14T19:36:06.412Z,99852.47
2023-05-14T19:39:10.124Z,99856.72
2023-05-14T19:42:13.645Z,99844.28
2023-05-14T19:45:17.187Z,99841.88
2023-05-14T19:48:20.563Z,99846.25
2023-05-14T19:51:23.747Z,99846.91
2023-05-14T19:54:26.884Z,99841.88
2023-05-14T19:57:29.976Z,99850.38
2023-05-14T20:00:33.807Z,99847.66
2023-05-14T20:03:37.735Z,99841.78
2023-05-14T20:06:41.909Z,99826.31
2023-05-14T20:09:44.913Z,99823.50
2023-05-14T20:12:47.914Z,99816.50
2023-05-14T20:15:51.396Z,99815.75
2023-05-14T20:18:54.679Z,99808.31
2023-05-14T20:21:57.831Z,99791.69
2023-05-14T20:25:00.904Z,99783.50
2023-05-14T20:28:04.558Z,99778.81
2023-05-14T20:31:07.924Z,99770.97
2023-05-14T20:34:11.015Z,99778.38
2023-05-14T20:37:14.262Z,99783.38
2023-05-14T20:40:17.510Z,99802.34
2023-05-14T20:43:20.783Z,99810.41
2023-05-14T20:46:23.914Z,99821.88
2023-05-14T20:49:28.407Z,99826.44
2023-05-14T20:52:50.677Z,99831.56
2023-05-14T20:55:53.833Z,99834.63
2023-05-14T20:58:57.010Z,99829.81
2023-05-14T21:02:00.344Z,99830.91
2023-05-14T21:05:03.862Z,99828.84
2023-05-14T21:08:08.027Z,99823.38
2023-05-14T21:11:11.231Z,99814.78
2023-05-14T21:14:14.407Z,99804.66
2023-05-14T21:17:17.832Z,99791.75
2023-05-14T21:20:21.012Z,99785.13
2023-05-14T21:23:24.345Z,99777.69
2023-05-14T21:26:32.065Z,99773.47
2023-05-14T21:29:35.372Z,99770.41
2023-05-14T21:32:38.489Z,99765.72
2023-05-14T21:35:42.182Z,99752.97
2023-05-14T21:38:45.377Z,99749.47
2023-05-14T21:41:48.952Z,99757.78
2023-05-14T21:44:52.046Z,99769.44
2023-05-14T21:47:55.362Z,99773.25
2023-05-14T21:50:58.537Z,99782.75
2023-05-14T21:54:01.566Z,99797.56
2023-05-14T21:57:05.034Z,99793.50
2023-05-14T22:00:12.585Z,99800.06
2023-05-14T22:03:18.159Z,99796.91
2023-05-14T22:06:21.577Z,99789.47
2023-05-14T22:09:24.852Z,99798.84
2023-05-14T22:12:27.923Z,99790.69
2023-05-14T22:15:31.300Z,99793.41
2023-05-14T22:18:34.816Z,99786.31
2023-05-14T22:21:38.018Z,99789.91
2023-05-14T22:24:40.988Z,99783.59
2023-05-14T22:27:44.161Z,99776.81
2023-05-14T22:30:47.195Z,99760.91
2023-05-14T22:33:50.352Z,99760.16
2023-05-14T22:36:53.553Z,99752.00
2023-05-14T22:39:56.913Z,99748.06
2023-05-14T22:43:00.359Z,99746.31
2023-05-14T22:46:03.867Z,99738.47
2023-05-14T22:49:07.311Z,99734.09
2023-05-14T22:52:10.684Z,99733.56
2023-05-14T22:55:14.116Z,99725.72
2023-05-14T22:58:17.074Z,99726.94
2023-05-14T23:01:20.478Z,99718.44
2023-05-14T23:04:23.750Z,99702.72
2023-05-14T23:07:27.070Z,99705.78
2023-05-14T23:10:30.059Z,99702.59
2023-05-14T23:13:33.375Z,99708.50
2023-05-14T23:16:36.851Z,99702.59
2023-05-14T23:19:39.883Z,99685.47
2023-05-14T23:22:42.961Z,99689.75
2023-05-14T23:25:46.190Z,99701.97
2023-05-14T23:28:49.253Z,99707.72
2023-05-14T23:31:52.737Z,99719.41
2023-05-14T23:34:55.994Z,99724.50
2023-05-14T23:37:59.258Z,99733.22
2023-05-14T23:41:02.442Z,99722.97
2023-05-14T23:44:06.018Z,99713.94
2023-05-14T23:47:09.644Z,99720.88
2023-05-14T23:50:13.082Z,99705.75
2023-05-14T23:53:16.344Z,99720.78
2023-05-14T23:56:19.820Z,99717.53
2023-05-14T23:59:22.909Z,99731.59
